sensor_id;sensor_type;location;lat;lon;timestamp;temperature;humidity
8858;DHT22;4465;50.904;4.696;2023-07-22T00:00:29;14.70;99.90
8858;DHT22;4465;50.904;4.696;2023-07-22T00:02:55;14.60;99.90
8858;DHT22;4465;50.904;4.696;2023-07-22T00:05:21;14.60;99.90
8858;DHT22;4465;50.904;4.696;2023-07-22T00:07:52;14.60;99.90
8858;DHT22;4465;50.904;4.696;2023-07-22T00:10:18;14.60;99.90
8858;DHT22;4465;50.904;4.696;2023-07-22T00:12:44;14.60;99.90
8858;DHT22;4465;50.904;4.696;2023-07-22T00:15:10;14.60;99.90
8858;DHT22;4465;50.904;4.696;2023-07-22T00:17:40;14.60;99.90
8858;DHT22;4465;50.904;4.696;2023-07-22T00:20:07;14.60;99.90
8858;DHT22;4465;50.904;4.696;2023-07-22T00:22:38;14.60;99.90
8858;DHT22;4465;50.904;4.696;2023-07-22T00:25:07;14.60;99.90
8858;DHT22;4465;50.904;4.696;2023-07-22T00:27:39;14.60;99.90
8858;DHT22;4465;50.904;4.696;2023-07-22T00:30:06;14.60;99.90
8858;DHT22;4465;50.904;4.696;2023-07-22T00:32:32;14.60;99.90
8858;DHT22;4465;50.904;4.696;2023-07-22T00:34:58;14.60;99.90
8858;DHT22;4465;50.904;4.696;2023-07-22T00:37:24;14.60;99.90
8858;DHT22;4465;50.904;4.696;2023-07-22T00:39:51;14.60;99.90
8858;DHT22;4465;50.904;4.696;2023-07-22T00:42:19;14.70;99.90
8858;DHT22;4465;50.904;4.696;2023-07-22T00:44:46;14.70;99.90
8858;DHT22;4465;50.904;4.696;2023-07-22T00:47:14;14.60;99.90
8858;DHT22;4465;50.904;4.696;2023-07-22T00:49:41;14.60;99.90
8858;DHT22;4465;50.904;4.696;2023-07-22T00:52:07;14.60;99.90
8858;DHT22;4465;50.904;4.696;2023-07-22T00:54:34;14.60;99.90
8858;DHT22;4465;50.904;4.696;2023-07-22T00:57:00;14.60;99.90
8858;DHT22;4465;50.904;4.696;2023-07-22T00:59:26;14.60;99.90
8858;DHT22;4465;50.904;4.696;2023-07-22T01:01:52;14.60;99.90
8858;DHT22;4465;50.904;4.696;2023-07-22T01:04:19;14.60;99.90
8858;DHT22;4465;50.904;4.696;2023-07-22T01:06:45;14.60;99.90
8858;DHT22;4465;50.904;4.696;2023-07-22T01:09:12;14.60;99.90
8858;DHT22;4465;50.904;4.696;2023-07-22T01:11:39;14.70;99.90
8858;DHT22;4465;50.904;4.696;2023-07-22T01:14:07;14.70;99.90
8858;DHT22;4465;50.904;4.696;2023-07-22T01:16:33;14.70;99.90
8858;DHT22;4465;50.904;4.696;2023-07-22T01:19:00;14.70;99.90
8858;DHT22;4465;50.904;4.696;2023-07-22T01:21:26;14.70;99.90
8858;DHT22;4465;50.904;4.696;2023-07-22T01:23:53;14.80;99.90
8858;DHT22;4465;50.904;4.696;2023-07-22T01:26:20;14.80;99.90
8858;DHT22;4465;50.904;4.696;2023-07-22T01:28:46;14.80;99.90
8858;DHT22;4465;50.904;4.696;2023-07-22T01:31:11;14.80;99.90
8858;DHT22;4465;50.904;4.696;2023-07-22T01:33:37;14.80;99.90
8858;DHT22;4465;50.904;4.696;2023-07-22T01:36:03;14.80;99.90
8858;DHT22;4465;50.904;4.696;2023-07-22T01:38:30;14.80;99.90
8858;DHT22;4465;50.904;4.696;2023-07-22T01:40:58;14.80;99.90
8858;DHT22;4465;50.904;4.696;2023-07-22T01:43:24;14.80;99.90
8858;DHT22;4465;50.904;4.696;2023-07-22T01:45:50;14.80;99.90
8858;DHT22;4465;50.904;4.696;2023-07-22T01:48:16;14.80;99.90
8858;DHT22;4465;50.904;4.696;2023-07-22T01:50:42;14.80;99.90
8858;DHT22;4465;50.904;4.696;2023-07-22T01:53:08;14.80;99.90
8858;DHT22;4465;50.904;4.696;2023-07-22T01:55:36;14.80;99.90
8858;DHT22;4465;50.904;4.696;2023-07-22T01:58:02;14.80;99.90
8858;DHT22;4465;50.904;4.696;2023-07-22T02:00:30;14.80;99.90
8858;DHT22;4465;50.904;4.696;2023-07-22T02:02:56;14.80;99.90
8858;DHT22;4465;50.904;4.696;2023-07-22T02:05:22;14.80;99.90
8858;DHT22;4465;50.904;4.696;2023-07-22T02:07:48;14.80;99.90
8858;DHT22;4465;50.904;4.696;2023-07-22T02:10:14;14.80;99.90
8858;DHT22;4465;50.904;4.696;2023-07-22T02:12:40;14.80;99.90
8858;DHT22;4465;50.904;4.696;2023-07-22T02:15:09;14.70;99.90
8858;DHT22;4465;50.904;4.696;2023-07-22T02:17:35;14.70;99.90
8858;DHT22;4465;50.904;4.696;2023-07-22T02:20:01;14.70;99.90
8858;DHT22;4465;50.904;4.696;2023-07-22T02:22:27;14.70;99.90
8858;DHT22;4465;50.904;4.696;2023-07-22T02:24:55;14.70;99.90
8858;DHT22;4465;50.904;4.696;2023-07-22T02:27:21;14.70;99.90
8858;DHT22;4465;50.904;4.696;2023-07-22T02:29:49;14.60;99.90
8858;DHT22;4465;50.904;4.696;2023-07-22T02:32:18;14.60;99.90
8858;DHT22;4465;50.904;4.696;2023-07-22T02:34:43;14.60;99.90
8858;DHT22;4465;50.904;4.696;2023-07-22T02:37:09;14.60;99.90
8858;DHT22;4465;50.904;4.696;2023-07-22T02:39:37;14.50;99.90
8858;DHT22;4465;50.904;4.696;2023-07-22T02:42:03;14.50;99.90
8858;DHT22;4465;50.904;4.696;2023-07-22T02:44:29;14.50;99.90
8858;DHT22;4465;50.904;4.696;2023-07-22T02:46:55;14.50;99.90
8858;DHT22;4465;50.904;4.696;2023-07-22T02:49:26;14.40;99.90
8858;DHT22;4465;50.904;4.696;2023-07-22T02:51:52;14.40;99.90
8858;DHT22;4465;50.904;4.696;2023-07-22T02:54:20;14.40;99.90
8858;DHT22;4465;50.904;4.696;2023-07-22T02:56:51;14.40;99.90
8858;DHT22;4465;50.904;4.696;2023-07-22T02:59:17;14.30;99.90
8858;DHT22;4465;50.904;4.696;2023-07-22T03:01:44;14.30;99.90
8858;DHT22;4465;50.904;4.696;2023-07-22T03:04:10;14.30;99.90
8858;DHT22;4465;50.904;4.696;2023-07-22T03:06:38;14.30;99.90
8858;DHT22;4465;50.904;4.696;2023-07-22T03:09:04;14.30;99.90
8858;DHT22;4465;50.904;4.696;2023-07-22T03:11:30;14.20;99.90
8858;DHT22;4465;50.904;4.696;2023-07-22T03:13:56;14.20;99.90
8858;DHT22;4465;50.904;4.696;2023-07-22T03:16:24;14.20;99.90
8858;DHT22;4465;50.904;4.696;2023-07-22T03:18:52;14.10;99.90
8858;DHT22;4465;50.904;4.696;2023-07-22T03:21:20;14.10;99.90
8858;DHT22;4465;50.904;4.696;2023-07-22T03:23:46;14.10;99.90
8858;DHT22;4465;50.904;4.696;2023-07-22T03:26:12;14.00;99.90
8858;DHT22;4465;50.904;4.696;2023-07-22T03:28:38;14.00;99.90
8858;DHT22;4465;50.904;4.696;2023-07-22T03:31:04;14.00;99.90
8858;DHT22;4465;50.904;4.696;2023-07-22T03:33:30;14.00;99.90
8858;DHT22;4465;50.904;4.696;2023-07-22T03:35:56;13.90;99.90
8858;DHT22;4465;50.904;4.696;2023-07-22T03:38:22;13.90;99.90
8858;DHT22;4465;50.904;4.696;2023-07-22T03:40:48;13.80;99.90
8858;DHT22;4465;50.904;4.696;2023-07-22T03:43:13;13.90;99.90
8858;DHT22;4465;50.904;4.696;2023-07-22T03:45:41;13.80;99.90
8858;DHT22;4465;50.904;4.696;2023-07-22T03:48:10;13.80;99.90
8858;DHT22;4465;50.904;4.696;2023-07-22T03:50:36;13.80;99.90
8858;DHT22;4465;50.904;4.696;2023-07-22T03:53:02;13.70;99.90
8858;DHT22;4465;50.904;4.696;2023-07-22T03:55:28;13.80;99.90
8858;DHT22;4465;50.904;4.696;2023-07-22T03:57:57;13.80;99.90
8858;DHT22;4465;50.904;4.696;2023-07-22T04:00:22;13.70;99.90
8858;DHT22;4465;50.904;4.696;2023-07-22T04:02:48;13.70;99.90
8858;DHT22;4465;50.904;4.696;2023-07-22T04:05:17;13.70;99.90
8858;DHT22;4465;50.904;4.696;2023-07-22T04:07:44;13.70;99.90
8858;DHT22;4465;50.904;4.696;2023-07-22T04:10:10;13.70;99.90
8858;DHT22;4465;50.904;4.696;2023-07-22T04:12:36;13.70;99.90
8858;DHT22;4465;50.904;4.696;2023-07-22T04:15:02;13.70;99.90
8858;DHT22;4465;50.904;4.696;2023-07-22T04:17:28;13.70;99.90
8858;DHT22;4465;50.904;4.696;2023-07-22T04:19:57;13.60;99.90
8858;DHT22;4465;50.904;4.696;2023-07-22T04:22:31;13.60;99.90
8858;DHT22;4465;50.904;4.696;2023-07-22T04:24:57;13.60;99.90
8858;DHT22;4465;50.904;4.696;2023-07-22T04:27:23;13.60;99.90
8858;DHT22;4465;50.904;4.696;2023-07-22T04:29:51;13.60;99.90
8858;DHT22;4465;50.904;4.696;2023-07-22T04:32:17;13.60;99.90
8858;DHT22;4465;50.904;4.696;2023-07-22T04:34:43;13.60;99.90
8858;DHT22;4465;50.904;4.696;2023-07-22T04:37:09;13.60;99.90
8858;DHT22;4465;50.904;4.696;2023-07-22T04:39:37;13.60;99.90
8858;DHT22;4465;50.904;4.696;2023-07-22T04:42:03;13.60;99.90
8858;DHT22;4465;50.904;4.696;2023-07-22T04:44:29;13.60;99.90
8858;DHT22;4465;50.904;4.696;2023-07-22T04:47:01;13.60;99.90
8858;DHT22;4465;50.904;4.696;2023-07-22T04:49:27;13.60;99.90
8858;DHT22;4465;50.904;4.696;2023-07-22T04:51:55;13.70;99.90
8858;DHT22;4465;50.904;4.696;2023-07-22T04:54:21;13.70;99.90
8858;DHT22;4465;50.904;4.696;2023-07-22T04:56:47;13.70;99.90
8858;DHT22;4465;50.904;4.696;2023-07-22T04:59:13;13.70;99.90
8858;DHT22;4465;50.904;4.696;2023-07-22T05:01:40;13.80;99.90
8858;DHT22;4465;50.904;4.696;2023-07-22T05:04:09;13.90;99.90
8858;DHT22;4465;50.904;4.696;2023-07-22T05:06:37;13.90;99.90
8858;DHT22;4465;50.904;4.696;2023-07-22T05:09:03;13.90;99.90
8858;DHT22;4465;50.904;4.696;2023-07-22T05:11:31;14.00;99.90
8858;DHT22;4465;50.904;4.696;2023-07-22T05:13:57;14.00;99.90
8858;DHT22;4465;50.904;4.696;2023-07-22T05:16:23;14.00;99.90
8858;DHT22;4465;50.904;4.696;2023-07-22T05:18:49;14.00;99.90
8858;DHT22;4465;50.904;4.696;2023-07-22T05:21:17;14.10;99.90
8858;DHT22;4465;50.904;4.696;2023-07-22T05:23:43;14.10;99.90
8858;DHT22;4465;50.904;4.696;2023-07-22T05:26:09;14.20;99.90
8858;DHT22;4465;50.904;4.696;2023-07-22T05:28:35;14.20;99.90
8858;DHT22;4465;50.904;4.696;2023-07-22T05:31:01;14.20;99.90
8858;DHT22;4465;50.904;4.696;2023-07-22T05:33:27;14.20;99.90
8858;DHT22;4465;50.904;4.696;2023-07-22T05:35:53;14.20;99.90
8858;DHT22;4465;50.904;4.696;2023-07-22T05:38:21;14.30;99.90
8858;DHT22;4465;50.904;4.696;2023-07-22T05:40:47;14.30;99.90
8858;DHT22;4465;50.904;4.696;2023-07-22T05:43:13;14.30;99.90
8858;DHT22;4465;50.904;4.696;2023-07-22T05:45:39;14.30;99.90
8858;DHT22;4465;50.904;4.696;2023-07-22T05:48:05;14.40;99.90
8858;DHT22;4465;50.904;4.696;2023-07-22T05:50:31;14.40;99.90
8858;DHT22;4465;50.904;4.696;2023-07-22T05:52:57;14.50;99.90
8858;DHT22;4465;50.904;4.696;2023-07-22T05:55:23;14.50;99.90
8858;DHT22;4465;50.904;4.696;2023-07-22T05:57:51;14.60;99.90
8858;DHT22;4465;50.904;4.696;2023-07-22T06:00:17;14.60;99.90
8858;DHT22;4465;50.904;4.696;2023-07-22T06:02:43;14.60;99.90
8858;DHT22;4465;50.904;4.696;2023-07-22T06:05:09;14.70;99.90
8858;DHT22;4465;50.904;4.696;2023-07-22T06:07:35;14.80;99.90
8858;DHT22;4465;50.904;4.696;2023-07-22T06:10:03;14.90;99.90
8858;DHT22;4465;50.904;4.696;2023-07-22T06:12:29;14.90;99.90
8858;DHT22;4465;50.904;4.696;2023-07-22T06:14:58;15.00;99.90
8858;DHT22;4465;50.904;4.696;2023-07-22T06:17:24;15.10;99.90
8858;DHT22;4465;50.904;4.696;2023-07-22T06:19:50;15.20;99.90
8858;DHT22;4465;50.904;4.696;2023-07-22T06:22:18;15.20;99.90
8858;DHT22;4465;50.904;4.696;2023-07-22T06:24:43;15.30;99.90
8858;DHT22;4465;50.904;4.696;2023-07-22T06:27:09;15.40;99.90
8858;DHT22;4465;50.904;4.696;2023-07-22T06:29:35;15.50;99.90
8858;DHT22;4465;50.904;4.696;2023-07-22T06:32:01;15.60;99.90
8858;DHT22;4465;50.904;4.696;2023-07-22T06:34:29;15.70;99.90
8858;DHT22;4465;50.904;4.696;2023-07-22T06:36:58;15.80;99.90
8858;DHT22;4465;50.904;4.696;2023-07-22T06:39:23;15.90;99.90
8858;DHT22;4465;50.904;4.696;2023-07-22T06:41:49;15.90;99.90
8858;DHT22;4465;50.904;4.696;2023-07-22T06:44:15;16.00;99.90
8858;DHT22;4465;50.904;4.696;2023-07-22T06:46:41;16.10;99.90
8858;DHT22;4465;50.904;4.696;2023-07-22T06:49:08;16.20;99.90
8858;DHT22;4465;50.904;4.696;2023-07-22T06:51:34;16.20;99.90
8858;DHT22;4465;50.904;4.696;2023-07-22T06:54:02;16.20;99.90
8858;DHT22;4465;50.904;4.696;2023-07-22T06:56:28;16.30;99.90
8858;DHT22;4465;50.904;4.696;2023-07-22T06:58:54;16.30;99.90
8858;DHT22;4465;50.904;4.696;2023-07-22T07:01:23;16.40;99.90
8858;DHT22;4465;50.904;4.696;2023-07-22T07:03:49;16.40;99.90
8858;DHT22;4465;50.904;4.696;2023-07-22T07:06:15;16.50;99.90
8858;DHT22;4465;50.904;4.696;2023-07-22T07:08:40;16.50;99.90
8858;DHT22;4465;50.904;4.696;2023-07-22T07:11:06;16.60;99.90
8858;DHT22;4465;50.904;4.696;2023-07-22T07:13:32;16.60;99.90
8858;DHT22;4465;50.904;4.696;2023-07-22T07:16:19;16.60;99.90
8858;DHT22;4465;50.904;4.696;2023-07-22T07:18:45;16.70;99.90
8858;DHT22;4465;50.904;4.696;2023-07-22T07:21:13;16.70;99.90
8858;DHT22;4465;50.904;4.696;2023-07-22T07:23:39;16.70;99.90
8858;DHT22;4465;50.904;4.696;2023-07-22T07:26:05;16.70;99.90
8858;DHT22;4465;50.904;4.696;2023-07-22T07:28:33;16.80;99.90
8858;DHT22;4465;50.904;4.696;2023-07-22T07:30:59;16.80;99.90
8858;DHT22;4465;50.904;4.696;2023-07-22T07:33:28;16.80;99.90
8858;DHT22;4465;50.904;4.696;2023-07-22T07:35:54;16.80;99.90
8858;DHT22;4465;50.904;4.696;2023-07-22T07:38:23;16.90;99.90
8858;DHT22;4465;50.904;4.696;2023-07-22T07:41:07;17.00;99.90
8858;DHT22;4465;50.904;4.696;2023-07-22T07:43:38;17.10;99.90
8858;DHT22;4465;50.904;4.696;2023-07-22T07:48:50;17.20;99.90
8858;DHT22;4465;50.904;4.696;2023-07-22T07:51:18;17.30;99.90
8858;DHT22;4465;50.904;4.696;2023-07-22T07:53:45;17.40;99.90
8858;DHT22;4465;50.904;4.696;2023-07-22T07:56:13;17.40;99.90
8858;DHT22;4465;50.904;4.696;2023-07-22T07:58:39;17.50;99.90
8858;DHT22;4465;50.904;4.696;2023-07-22T08:01:06;17.50;99.90
8858;DHT22;4465;50.904;4.696;2023-07-22T08:03:33;17.50;99.90
8858;DHT22;4465;50.904;4.696;2023-07-22T08:05:59;17.60;99.90
8858;DHT22;4465;50.904;4.696;2023-07-22T08:08:25;17.60;99.90
8858;DHT22;4465;50.904;4.696;2023-07-22T08:11:11;17.60;99.90
8858;DHT22;4465;50.904;4.696;2023-07-22T08:13:42;17.60;99.90
8858;DHT22;4465;50.904;4.696;2023-07-22T08:16:10;17.60;99.90
8858;DHT22;4465;50.904;4.696;2023-07-22T08:18:36;17.60;99.90
8858;DHT22;4465;50.904;4.696;2023-07-22T08:21:03;17.60;99.90
8858;DHT22;4465;50.904;4.696;2023-07-22T08:23:31;17.60;99.90
8858;DHT22;4465;50.904;4.696;2023-07-22T08:25:57;17.60;99.90
8858;DHT22;4465;50.904;4.696;2023-07-22T08:28:25;17.70;99.90
8858;DHT22;4465;50.904;4.696;2023-07-22T08:30:54;17.70;99.90
8858;DHT22;4465;50.904;4.696;2023-07-22T08:33:21;17.70;99.90
8858;DHT22;4465;50.904;4.696;2023-07-22T08:35:47;17.80;99.90
8858;DHT22;4465;50.904;4.696;2023-07-22T08:38:15;17.90;99.90
8858;DHT22;4465;50.904;4.696;2023-07-22T08:40:44;18.00;99.90
8858;DHT22;4465;50.904;4.696;2023-07-22T08:43:13;18.10;99.90
8858;DHT22;4465;50.904;4.696;2023-07-22T08:45:41;18.20;99.90
8858;DHT22;4465;50.904;4.696;2023-07-22T08:48:09;18.30;99.90
8858;DHT22;4465;50.904;4.696;2023-07-22T08:50:53;18.40;99.90
8858;DHT22;4465;50.904;4.696;2023-07-22T08:53:20;18.40;99.90
8858;DHT22;4465;50.904;4.696;2023-07-22T08:55:51;18.40;99.90
8858;DHT22;4465;50.904;4.696;2023-07-22T08:58:22;18.40;99.90
8858;DHT22;4465;50.904;4.696;2023-07-22T09:00:50;18.40;99.90
8858;DHT22;4465;50.904;4.696;2023-07-22T09:03:17;18.40;99.90
8858;DHT22;4465;50.904;4.696;2023-07-22T09:05:45;18.50;99.90
8858;DHT22;4465;50.904;4.696;2023-07-22T09:08:12;18.50;99.90
8858;DHT22;4465;50.904;4.696;2023-07-22T09:10:39;18.60;99.90
8858;DHT22;4465;50.904;4.696;2023-07-22T09:13:05;18.60;99.90
8858;DHT22;4465;50.904;4.696;2023-07-22T09:15:35;18.70;99.90
8858;DHT22;4465;50.904;4.696;2023-07-22T09:18:03;18.80;99.90
8858;DHT22;4465;50.904;4.696;2023-07-22T09:20:29;18.80;99.90
8858;DHT22;4465;50.904;4.696;2023-07-22T09:22:55;18.90;99.90
8858;DHT22;4465;50.904;4.696;2023-07-22T09:25:27;18.90;99.90
8858;DHT22;4465;50.904;4.696;2023-07-22T09:27:55;19.00;99.90
8858;DHT22;4465;50.904;4.696;2023-07-22T09:32:53;19.10;99.90
8858;DHT22;4465;50.904;4.696;2023-07-22T09:35:20;19.20;99.90
8858;DHT22;4465;50.904;4.696;2023-07-22T09:37:49;19.20;99.90
8858;DHT22;4465;50.904;4.696;2023-07-22T09:42:54;19.20;99.90
8858;DHT22;4465;50.904;4.696;2023-07-22T09:45:28;19.30;99.90
8858;DHT22;4465;50.904;4.696;2023-07-22T09:47:55;19.40;99.90
8858;DHT22;4465;50.904;4.696;2023-07-22T09:50:23;19.50;99.90
8858;DHT22;4465;50.904;4.696;2023-07-22T09:52:53;19.60;99.90
8858;DHT22;4465;50.904;4.696;2023-07-22T09:55:23;19.70;99.90
8858;DHT22;4465;50.904;4.696;2023-07-22T09:57:53;19.70;99.90
8858;DHT22;4465;50.904;4.696;2023-07-22T10:00:20;19.80;99.90
8858;DHT22;4465;50.904;4.696;2023-07-22T10:02:48;19.80;99.90
8858;DHT22;4465;50.904;4.696;2023-07-22T10:05:18;19.80;99.90
8858;DHT22;4465;50.904;4.696;2023-07-22T10:07:55;19.80;99.90
8858;DHT22;4465;50.904;4.696;2023-07-22T10:10:33;19.80;99.90
8858;DHT22;4465;50.904;4.696;2023-07-22T10:12:59;19.80;99.90
8858;DHT22;4465;50.904;4.696;2023-07-22T10:15:32;19.90;99.90
8858;DHT22;4465;50.904;4.696;2023-07-22T10:18:03;20.00;99.90
8858;DHT22;4465;50.904;4.696;2023-07-22T10:20:31;20.00;99.90
8858;DHT22;4465;50.904;4.696;2023-07-22T10:23:01;20.00;99.90
8858;DHT22;4465;50.904;4.696;2023-07-22T10:25:27;20.00;99.90
8858;DHT22;4465;50.904;4.696;2023-07-22T10:27:53;20.00;99.90
8858;DHT22;4465;50.904;4.696;2023-07-22T10:30:19;20.10;99.90
8858;DHT22;4465;50.904;4.696;2023-07-22T10:32:47;20.10;99.90
8858;DHT22;4465;50.904;4.696;2023-07-22T10:37:56;20.20;99.90
8858;DHT22;4465;50.904;4.696;2023-07-22T10:40:32;20.30;99.90
8858;DHT22;4465;50.904;4.696;2023-07-22T10:43:09;20.40;99.90
8858;DHT22;4465;50.904;4.696;2023-07-22T10:45:43;20.50;99.90
8858;DHT22;4465;50.904;4.696;2023-07-22T10:48:10;20.50;99.90
8858;DHT22;4465;50.904;4.696;2023-07-22T10:53:05;20.60;99.90
8858;DHT22;4465;50.904;4.696;2023-07-22T10:55:30;20.70;99.90
8858;DHT22;4465;50.904;4.696;2023-07-22T10:58:04;20.90;99.90
8858;DHT22;4465;50.904;4.696;2023-07-22T11:00:31;21.00;99.90
8858;DHT22;4465;50.904;4.696;2023-07-22T11:03:13;21.10;99.90
8858;DHT22;4465;50.904;4.696;2023-07-22T11:05:50;21.20;99.90
8858;DHT22;4465;50.904;4.696;2023-07-22T11:08:16;21.50;99.90
8858;DHT22;4465;50.904;4.696;2023-07-22T11:10:53;21.70;99.90
8858;DHT22;4465;50.904;4.696;2023-07-22T11:13:28;21.80;99.90
8858;DHT22;4465;50.904;4.696;2023-07-22T11:15:58;22.00;99.90
8858;DHT22;4465;50.904;4.696;2023-07-22T11:18:41;22.20;99.90
8858;DHT22;4465;50.904;4.696;2023-07-22T11:21:11;22.50;99.90
8858;DHT22;4465;50.904;4.696;2023-07-22T11:23:37;22.90;99.90
8858;DHT22;4465;50.904;4.696;2023-07-22T11:26:05;23.20;99.90
8858;DHT22;4465;50.904;4.696;2023-07-22T11:28:31;23.50;99.90
8858;DHT22;4465;50.904;4.696;2023-07-22T11:31:00;23.60;99.90
8858;DHT22;4465;50.904;4.696;2023-07-22T11:33:34;23.30;99.90
8858;DHT22;4465;50.904;4.696;2023-07-22T11:36:03;23.00;99.90
8858;DHT22;4465;50.904;4.696;2023-07-22T11:38:32;22.80;99.90
8858;DHT22;4465;50.904;4.696;2023-07-22T11:40:58;22.80;99.90
8858;DHT22;4465;50.904;4.696;2023-07-22T11:43:27;22.80;99.90
8858;DHT22;4465;50.904;4.696;2023-07-22T11:45:53;22.70;99.90
8858;DHT22;4465;50.904;4.696;2023-07-22T11:48:19;22.80;99.90
8858;DHT22;4465;50.904;4.696;2023-07-22T11:50:45;22.90;99.90
8858;DHT22;4465;50.904;4.696;2023-07-22T11:53:11;23.00;99.90
8858;DHT22;4465;50.904;4.696;2023-07-22T11:55:38;22.90;99.90
8858;DHT22;4465;50.904;4.696;2023-07-22T11:58:04;22.80;99.90
8858;DHT22;4465;50.904;4.696;2023-07-22T12:00:30;22.80;99.90
8858;DHT22;4465;50.904;4.696;2023-07-22T12:02:56;22.70;99.90
8858;DHT22;4465;50.904;4.696;2023-07-22T12:05:23;22.70;99.90
8858;DHT22;4465;50.904;4.696;2023-07-22T12:07:49;22.60;99.90
8858;DHT22;4465;50.904;4.696;2023-07-22T12:10:15;22.80;99.90
8858;DHT22;4465;50.904;4.696;2023-07-22T12:12:43;23.10;99.90
8858;DHT22;4465;50.904;4.696;2023-07-22T12:17:51;23.80;99.90
8858;DHT22;4465;50.904;4.696;2023-07-22T12:20:22;23.90;99.50
8858;DHT22;4465;50.904;4.696;2023-07-22T12:22:48;23.90;99.80
8858;DHT22;4465;50.904;4.696;2023-07-22T12:25:16;23.90;99.60
8858;DHT22;4465;50.904;4.696;2023-07-22T12:27:45;24.00;99.90
8858;DHT22;4465;50.904;4.696;2023-07-22T12:30:11;24.30;99.90
8858;DHT22;4465;50.904;4.696;2023-07-22T12:32:38;24.70;99.90
8858;DHT22;4465;50.904;4.696;2023-07-22T12:35:05;25.00;99.90
8858;DHT22;4465;50.904;4.696;2023-07-22T12:37:31;25.20;99.90
8858;DHT22;4465;50.904;4.696;2023-07-22T12:39:59;25.40;99.90
8858;DHT22;4465;50.904;4.696;2023-07-22T12:42:25;25.60;98.80
8858;DHT22;4465;50.904;4.696;2023-07-22T12:44:51;25.70;99.60
8858;DHT22;4465;50.904;4.696;2023-07-22T12:47:17;25.80;98.20
8858;DHT22;4465;50.904;4.696;2023-07-22T12:49:44;25.80;98.50
8858;DHT22;4465;50.904;4.696;2023-07-22T12:52:11;25.90;98.20
8858;DHT22;4465;50.904;4.696;2023-07-22T12:54:38;26.10;98.40
8858;DHT22;4465;50.904;4.696;2023-07-22T12:57:04;26.20;98.00
8858;DHT22;4465;50.904;4.696;2023-07-22T12:59:31;26.30;97.60
8858;DHT22;4465;50.904;4.696;2023-07-22T13:01:57;26.40;97.40
8858;DHT22;4465;50.904;4.696;2023-07-22T13:04:26;26.50;98.00
8858;DHT22;4465;50.904;4.696;2023-07-22T13:06:52;26.50;96.90
8858;DHT22;4465;50.904;4.696;2023-07-22T13:09:18;26.50;96.20
8858;DHT22;4465;50.904;4.696;2023-07-22T13:11:44;26.50;96.70
8858;DHT22;4465;50.904;4.696;2023-07-22T13:14:13;26.50;96.20
8858;DHT22;4465;50.904;4.696;2023-07-22T13:16:39;26.50;96.30
8858;DHT22;4465;50.904;4.696;2023-07-22T13:19:07;26.40;95.30
8858;DHT22;4465;50.904;4.696;2023-07-22T13:21:34;26.40;95.50
8858;DHT22;4465;50.904;4.696;2023-07-22T13:24:02;26.30;95.10
8858;DHT22;4465;50.904;4.696;2023-07-22T13:26:28;26.30;95.00
8858;DHT22;4465;50.904;4.696;2023-07-22T13:28:54;26.30;94.80
8858;DHT22;4465;50.904;4.696;2023-07-22T13:31:20;26.20;95.10
8858;DHT22;4465;50.904;4.696;2023-07-22T13:33:46;26.30;95.60
8858;DHT22;4465;50.904;4.696;2023-07-22T13:36:12;26.20;94.60
8858;DHT22;4465;50.904;4.696;2023-07-22T13:38:38;26.00;94.50
8858;DHT22;4465;50.904;4.696;2023-07-22T13:41:04;25.80;94.10
8858;DHT22;4465;50.904;4.696;2023-07-22T13:43:29;25.60;94.30
8858;DHT22;4465;50.904;4.696;2023-07-22T13:45:56;25.40;94.30
8858;DHT22;4465;50.904;4.696;2023-07-22T13:48:25;25.20;94.40
8858;DHT22;4465;50.904;4.696;2023-07-22T13:50:51;24.90;94.60
8858;DHT22;4465;50.904;4.696;2023-07-22T13:53:17;24.80;94.10
8858;DHT22;4465;50.904;4.696;2023-07-22T13:55:48;24.50;94.00
8858;DHT22;4465;50.904;4.696;2023-07-22T13:58:14;24.30;94.30
8858;DHT22;4465;50.904;4.696;2023-07-22T14:00:40;24.20;93.90
8858;DHT22;4465;50.904;4.696;2023-07-22T14:03:08;24.00;94.30
8858;DHT22;4465;50.904;4.696;2023-07-22T14:05:35;23.80;93.20
8858;DHT22;4465;50.904;4.696;2023-07-22T14:08:03;23.60;93.80
8858;DHT22;4465;50.904;4.696;2023-07-22T14:10:30;23.50;94.00
8858;DHT22;4465;50.904;4.696;2023-07-22T14:12:56;23.40;94.10
8858;DHT22;4465;50.904;4.696;2023-07-22T14:15:22;23.30;94.30
8858;DHT22;4465;50.904;4.696;2023-07-22T14:17:47;23.20;93.90
8858;DHT22;4465;50.904;4.696;2023-07-22T14:20:13;23.10;93.90
8858;DHT22;4465;50.904;4.696;2023-07-22T14:22:44;23.00;94.10
8858;DHT22;4465;50.904;4.696;2023-07-22T14:25:09;22.80;93.90
8858;DHT22;4465;50.904;4.696;2023-07-22T14:27:39;22.70;94.30
8858;DHT22;4465;50.904;4.696;2023-07-22T14:30:08;22.60;94.40
8858;DHT22;4465;50.904;4.696;2023-07-22T14:32:34;22.40;94.20
8858;DHT22;4465;50.904;4.696;2023-07-22T14:35:02;22.30;94.40
8858;DHT22;4465;50.904;4.696;2023-07-22T14:37:30;22.10;94.50
8858;DHT22;4465;50.904;4.696;2023-07-22T14:40:01;22.00;94.20
8858;DHT22;4465;50.904;4.696;2023-07-22T14:42:28;21.90;94.90
8858;DHT22;4465;50.904;4.696;2023-07-22T14:44:53;21.80;95.10
8858;DHT22;4465;50.904;4.696;2023-07-22T14:47:22;21.70;95.10
8858;DHT22;4465;50.904;4.696;2023-07-22T14:49:48;21.70;95.20
8858;DHT22;4465;50.904;4.696;2023-07-22T14:52:16;21.60;95.30
8858;DHT22;4465;50.904;4.696;2023-07-22T14:54:43;21.50;95.50
8858;DHT22;4465;50.904;4.696;2023-07-22T14:57:09;21.50;95.60
8858;DHT22;4465;50.904;4.696;2023-07-22T14:59:37;21.40;95.60
8858;DHT22;4465;50.904;4.696;2023-07-22T15:02:06;21.40;95.80
8858;DHT22;4465;50.904;4.696;2023-07-22T15:04:32;21.40;96.00
8858;DHT22;4465;50.904;4.696;2023-07-22T15:07:00;21.40;96.10
8858;DHT22;4465;50.904;4.696;2023-07-22T15:09:26;21.40;96.20
8858;DHT22;4465;50.904;4.696;2023-07-22T15:11:54;21.40;96.20
8858;DHT22;4465;50.904;4.696;2023-07-22T15:14:20;21.40;96.30
8858;DHT22;4465;50.904;4.696;2023-07-22T15:16:49;21.50;96.00
8858;DHT22;4465;50.904;4.696;2023-07-22T15:19:15;21.50;96.30
8858;DHT22;4465;50.904;4.696;2023-07-22T15:21:41;21.50;96.40
8858;DHT22;4465;50.904;4.696;2023-07-22T15:24:09;21.50;96.40
8858;DHT22;4465;50.904;4.696;2023-07-22T15:26:35;21.50;96.40
8858;DHT22;4465;50.904;4.696;2023-07-22T15:29:03;21.50;96.50
8858;DHT22;4465;50.904;4.696;2023-07-22T15:31:28;21.50;96.40
8858;DHT22;4465;50.904;4.696;2023-07-22T15:33:54;21.50;96.30
8858;DHT22;4465;50.904;4.696;2023-07-22T15:36:20;21.50;96.00
8858;DHT22;4465;50.904;4.696;2023-07-22T15:38:46;21.50;96.60
8858;DHT22;4465;50.904;4.696;2023-07-22T15:41:12;21.50;96.40
8858;DHT22;4465;50.904;4.696;2023-07-22T15:43:38;21.50;96.80
8858;DHT22;4465;50.904;4.696;2023-07-22T15:46:04;21.50;97.00
8858;DHT22;4465;50.904;4.696;2023-07-22T15:48:32;21.60;97.10
8858;DHT22;4465;50.904;4.696;2023-07-22T15:50:58;21.60;97.00
8858;DHT22;4465;50.904;4.696;2023-07-22T15:53:24;21.60;97.20
8858;DHT22;4465;50.904;4.696;2023-07-22T15:55:50;21.50;97.30
8858;DHT22;4465;50.904;4.696;2023-07-22T15:58:16;21.50;97.30
8858;DHT22;4465;50.904;4.696;2023-07-22T16:00:42;21.60;97.30
8858;DHT22;4465;50.904;4.696;2023-07-22T16:03:11;21.50;97.20
8858;DHT22;4465;50.904;4.696;2023-07-22T16:05:40;21.50;97.30
8858;DHT22;4465;50.904;4.696;2023-07-22T16:08:06;21.40;97.40
8858;DHT22;4465;50.904;4.696;2023-07-22T16:10:32;21.50;97.50
8858;DHT22;4465;50.904;4.696;2023-07-22T16:13:04;21.40;97.60
8858;DHT22;4465;50.904;4.696;2023-07-22T16:15:30;21.50;97.50
8858;DHT22;4465;50.904;4.696;2023-07-22T16:18:01;21.50;97.60